Terminal Aerodrome Forecast
Issued by NWS Cleveland, OH

Home | Current Version | Previous Version | Text Only | Print | Product List | Glossary On
Versions: 1 2 3 4 5 6 7 8 9 10 11 12 13 14 15 16 17 18 19 20 21 22 23 24 25 26 27 28 29 30 31 32
000
FTUS41 KCLE 310500
TAFCLE
TAF
KCLE 310540Z 3106/0112 21010KT P6SM VCSH SCT040 OVC100
     FM311000 22010KT P6SM SCT012 OVC030
     FM311200 22010KT P6SM VCSH SCT008 OVC012
     FM311800 23010KT P6SM OVC020=

USA.gov is the U.S. government's official web portal to all federal, state and local government web resources and services.